createdAt,value
2022-10-14T00:01:48.482Z,14.87
2022-10-14T00:04:50.217Z,16.40
2022-10-14T00:07:51.904Z,16.20
2022-10-14T00:10:53.581Z,15.53
2022-10-14T00:13:57.710Z,15.47
2022-10-14T00:16:59.397Z,15.53
2022-10-14T00:20:01.081Z,14.90
2022-10-14T00:23:02.839Z,15.00
2022-10-14T00:26:04.925Z,15.17
2022-10-14T00:29:13.289Z,15.47
2022-10-14T00:32:15.712Z,16.17
2022-10-14T00:35:17.913Z,15.10
2022-10-14T00:38:19.555Z,15.13
2022-10-14T00:41:32.981Z,14.90
2022-10-14T00:44:34.789Z,15.33
2022-10-14T00:47:36.533Z,15.30
2022-10-14T00:50:45.488Z,16.60
2022-10-14T00:53:47.599Z,16.27
2022-10-14T00:56:50.157Z,17.77
2022-10-14T00:59:54.391Z,15.10
2022-10-14T01:02:57.046Z,16.57
2022-10-14T01:06:17.981Z,16.60
2022-10-14T01:09:40.410Z,16.23
2022-10-14T01:12:59.927Z,14.47
2022-10-14T01:16:23.173Z,16.23
2022-10-14T01:19:52.493Z,15.97
2022-10-14T01:23:18.956Z,15.63
2022-10-14T01:26:45.856Z,16.10
2022-10-14T01:30:06.185Z,14.27
2022-10-14T01:33:22.254Z,13.90
2022-10-14T01:36:32.225Z,15.63
2022-10-14T01:39:42.538Z,15.37
2022-10-14T01:42:46.006Z,16.63
2022-10-14T01:45:49.877Z,16.43
2022-10-14T01:48:56.239Z,15.60
2022-10-14T01:52:03.883Z,13.53
2022-10-14T01:55:11.810Z,14.67
2022-10-14T01:58:16.331Z,14.80
2022-10-14T02:01:19.023Z,15.70
2022-10-14T02:04:23.816Z,16.07
2022-10-14T02:07:54.944Z,13.73
2022-10-14T02:11:09.429Z,15.37
2022-10-14T02:14:38.459Z,14.00
2022-10-14T02:17:57.973Z,13.13
2022-10-14T02:20:59.615Z,14.77
2022-10-14T02:24:09.590Z,15.47
2022-10-14T02:27:15.008Z,13.73
2022-10-14T02:30:19.858Z,14.87
2022-10-14T02:33:30.928Z,15.07
2022-10-14T02:36:35.444Z,14.97
2022-10-14T02:39:44.446Z,14.30
2022-10-14T02:42:46.320Z,14.40
2022-10-14T02:45:48.016Z,14.70
2022-10-14T02:48:50.510Z,14.30
2022-10-14T02:51:52.453Z,13.93
2022-10-14T02:54:54.149Z,13.50
2022-10-14T02:57:57.207Z,13.20
2022-10-14T03:01:01.569Z,14.80
2022-10-14T03:04:04.483Z,14.57
2022-10-14T03:07:06.302Z,13.73
2022-10-14T03:10:12.378Z,14.97
2022-10-14T03:13:14.765Z,12.67
2022-10-14T03:16:20.353Z,16.37
2022-10-14T03:19:23.170Z,15.73
2022-10-14T03:22:28.384Z,16.27
2022-10-14T03:25:31.761Z,15.33
2022-10-14T03:28:43.864Z,15.70
2022-10-14T03:31:54.252Z,16.03
2022-10-14T03:35:03.881Z,16.63
2022-10-14T03:38:06.529Z,16.73
2022-10-14T03:41:09.733Z,17.23
2022-10-14T03:44:11.480Z,17.00
2022-10-14T03:47:18.402Z,16.57
2022-10-14T03:50:20.931Z,15.47
2022-10-14T03:53:27.379Z,15.40
2022-10-14T03:56:29.924Z,13.73
2022-10-14T03:59:32.576Z,16.53
2022-10-14T04:02:35.508Z,17.00
2022-10-14T04:05:37.985Z,15.87
2022-10-14T04:08:45.832Z,16.63
2022-10-14T04:12:00.415Z,15.97
2022-10-14T04:15:18.105Z,16.20
2022-10-14T04:18:38.109Z,16.03
2022-10-14T04:21:39.924Z,16.10
2022-10-14T04:24:44.164Z,16.97
2022-10-14T04:27:46.097Z,15.87
2022-10-14T04:30:48.264Z,15.57
2022-10-14T04:33:59.546Z,16.13
2022-10-14T04:37:06.659Z,16.00
2022-10-14T04:40:20.461Z,15.23
2022-10-14T04:43:22.757Z,15.93
2022-10-14T04:46:24.787Z,15.40
2022-10-14T04:49:26.733Z,16.07
2022-10-14T04:52:38.012Z,15.30
2022-10-14T04:55:46.649Z,15.67
2022-10-14T04:58:48.352Z,17.57
2022-10-14T05:01:50.381Z,16.60
2022-10-14T05:04:52.158Z,14.93
2022-10-14T05:07:53.937Z,15.53
2022-10-14T05:11:00.162Z,16.77
2022-10-14T05:14:19.019Z,18.33
2022-10-14T05:17:23.858Z,18.60
2022-10-14T05:20:25.608Z,17.60
2022-10-14T05:23:30.293Z,18.97
2022-10-14T05:26:33.639Z,18.47
2022-10-14T05:29:38.752Z,16.77
2022-10-14T05:32:41.029Z,17.33
2022-10-14T05:35:58.789Z,17.07
2022-10-14T05:39:02.376Z,17.27
2022-10-14T05:42:09.200Z,17.80
2022-10-14T05:45:11.555Z,15.53
2022-10-14T05:48:19.932Z,16.47
2022-10-14T05:51:23.794Z,16.17
2022-10-14T05:54:31.399Z,18.10
2022-10-14T05:57:33.984Z,15.43
2022-10-14T06:00:35.929Z,14.90
2022-10-14T06:03:43.299Z,16.73
2022-10-14T06:06:45.552Z,15.13
2022-10-14T06:09:47.260Z,16.17
2022-10-14T06:12:49.426Z,15.47
2022-10-14T06:15:51.317Z,14.77
2022-10-14T06:18:54.618Z,15.77
2022-10-14T06:21:57.345Z,14.17
2022-10-14T06:25:03.294Z,14.50
2022-10-14T06:28:06.195Z,15.07
2022-10-14T06:31:07.868Z,14.90
2022-10-14T06:34:09.721Z,15.47
2022-10-14T06:37:11.395Z,15.17
2022-10-14T06:40:13.160Z,14.37
2022-10-14T06:43:14.809Z,14.43
2022-10-14T06:46:16.606Z,14.57
2022-10-14T06:49:18.312Z,13.93
2022-10-14T06:52:20.206Z,13.97
2022-10-14T06:55:22.015Z,13.87
2022-10-14T06:58:23.688Z,14.40
2022-10-14T07:01:25.548Z,12.93
2022-10-14T07:04:27.229Z,12.53
2022-10-14T07:07:28.876Z,13.67
2022-10-14T07:10:30.554Z,10.87
2022-10-14T07:13:34.150Z,12.63
2022-10-14T07:16:35.920Z,12.17
2022-10-14T07:19:37.608Z,11.60
2022-10-14T07:22:39.340Z,12.83
2022-10-14T07:25:41.097Z,11.57
2022-10-14T07:28:42.857Z,10.17
2022-10-14T07:31:44.585Z,9.40
2022-10-14T07:34:46.290Z,10.17
2022-10-14T07:37:48.971Z,11.27
2022-10-14T07:41:02.464Z,9.43
2022-10-14T07:44:08.414Z,8.23
2022-10-14T07:47:10.046Z,7.87
2022-10-14T07:50:11.844Z,8.33
2022-10-14T07:53:13.484Z,8.20
2022-10-14T07:56:15.347Z,7.47
2022-10-14T07:59:18.895Z,7.33
2022-10-14T08:02:20.563Z,7.63
2022-10-14T08:05:38.781Z,7.90
2022-10-14T08:08:42.424Z,6.87
2022-10-14T08:11:45.155Z,6.70
2022-10-14T08:14:46.841Z,7.60
2022-10-14T08:17:48.476Z,6.77
2022-10-14T08:20:50.484Z,6.43
2022-10-14T08:23:53.104Z,6.57
2022-10-14T08:26:57.922Z,6.33
2022-10-14T08:29:59.770Z,6.60
2022-10-14T08:33:01.509Z,6.37
2022-10-14T08:36:03.351Z,6.53
2022-10-14T08:39:05.755Z,6.40
2022-10-14T08:42:34.880Z,7.10
2022-10-14T08:45:42.680Z,6.67
2022-10-14T08:48:45.336Z,5.80
2022-10-14T08:51:53.421Z,5.80
2022-10-14T08:55:00.088Z,5.53
2022-10-14T08:58:11.593Z,5.77
2022-10-14T09:01:29.475Z,5.17
2022-10-14T09:04:35.745Z,5.10
2022-10-14T09:07:37.672Z,5.67
2022-10-14T09:10:42.228Z,5.93
2022-10-14T09:13:47.613Z,5.47
2022-10-14T09:16:54.303Z,5.93
2022-10-14T09:20:13.313Z,4.73
2022-10-14T09:23:19.213Z,4.53
2022-10-14T09:26:20.961Z,4.23
2022-10-14T09:29:37.344Z,4.20
2022-10-14T09:32:44.444Z,4.37
2022-10-14T09:35:47.412Z,4.80
2022-10-14T09:38:52.617Z,3.80
2022-10-14T09:41:55.086Z,4.07
2022-10-14T09:45:14.159Z,4.27
2022-10-14T09:48:37.908Z,3.83
2022-10-14T09:51:43.133Z,4.03
2022-10-14T09:54:44.969Z,3.93
2022-10-14T09:57:47.014Z,3.93
2022-10-14T10:00:57.184Z,3.53
2022-10-14T10:04:30.964Z,3.57
2022-10-14T10:07:35.020Z,3.27
2022-10-14T10:10:37.131Z,3.07
2022-10-14T10:13:47.127Z,3.20
2022-10-14T10:20:18.080Z,3.13
2022-10-14T10:23:26.903Z,2.57
2022-10-14T10:26:32.788Z,2.97
2022-10-14T10:29:35.228Z,3.20
2022-10-14T10:32:44.721Z,6.80
2022-10-14T10:39:30.079Z,2.33
2022-10-14T10:42:48.660Z,1.93
2022-10-14T10:46:15.117Z,1.77
2022-10-14T10:49:41.348Z,1.87
2022-10-14T10:53:05.307Z,1.80
2022-10-14T10:56:13.373Z,1.60
2022-10-14T10:59:33.361Z,1.97
2022-10-14T11:02:44.103Z,1.47
2022-10-14T11:05:48.765Z,2.17
2022-10-14T11:09:21.492Z,1.37
2022-10-14T11:12:56.626Z,1.70
2022-10-14T11:16:27.441Z,1.80
2022-10-14T11:19:54.025Z,1.67
2022-10-14T11:23:34.742Z,1.80
2022-10-14T11:27:23.899Z,1.83
2022-10-14T11:30:59.265Z,1.40
2022-10-14T11:34:25.080Z,1.60
2022-10-14T11:38:00.649Z,1.50
2022-10-14T11:41:27.837Z,1.20
2022-10-14T11:44:40.455Z,1.53
2022-10-14T11:47:45.620Z,1.17
2022-10-14T11:50:53.197Z,0.97
2022-10-14T11:54:08.373Z,1.07
2022-10-14T11:57:25.472Z,1.10
2022-10-14T12:00:30.974Z,1.53
2022-10-14T12:04:02.765Z,2.30
2022-10-14T12:07:12.455Z,1.60
2022-10-14T12:10:27.445Z,1.60
2022-10-14T12:13:42.895Z,1.00
2022-10-14T12:16:47.398Z,1.17
2022-10-14T12:19:51.093Z,1.03
2022-10-14T12:22:54.608Z,1.23
2022-10-14T12:26:13.307Z,1.27
2022-10-14T12:29:19.348Z,0.80
2022-10-14T12:32:25.080Z,1.07
2022-10-14T12:35:53.463Z,0.97
2022-10-14T12:39:22.413Z,1.20
2022-10-14T12:42:26.188Z,1.00
2022-10-14T12:45:31.503Z,2.17
2022-10-14T12:48:38.857Z,1.40
2022-10-14T12:51:56.682Z,1.53
2022-10-14T12:55:00.813Z,1.60
2022-10-14T12:58:04.823Z,1.87
2022-10-14T13:01:17.335Z,1.73
2022-10-14T13:04:20.497Z,2.13
2022-10-14T13:07:46.598Z,2.27
2022-10-14T13:10:54.990Z,1.87
2022-10-14T13:14:01.196Z,1.87
2022-10-14T13:17:24.000Z,2.43
2022-10-14T13:20:34.902Z,1.90
2022-10-14T13:23:49.346Z,2.07
2022-10-14T13:26:53.992Z,2.60
2022-10-14T13:30:08.613Z,2.30
2022-10-14T13:33:32.663Z,2.80
2022-10-14T13:36:42.283Z,4.00
2022-10-14T13:39:43.962Z,4.30
2022-10-14T13:42:52.106Z,5.00
2022-10-14T13:45:58.823Z,5.17
2022-10-14T13:49:03.855Z,5.60
2022-10-14T13:52:10.549Z,3.87
2022-10-14T13:55:18.460Z,4.77
2022-10-14T13:58:24.668Z,3.90
2022-10-14T14:01:39.062Z,3.60
2022-10-14T14:04:42.028Z,3.90
2022-10-14T14:08:30.185Z,3.43
2022-10-14T14:11:22.513Z,3.60
2022-10-14T14:14:34.593Z,3.73
2022-10-14T14:17:36.256Z,4.50
2022-10-14T14:20:38.379Z,3.60
2022-10-14T14:23:53.997Z,3.40
2022-10-14T14:26:56.437Z,3.70
2022-10-14T14:29:59.270Z,4.87
2022-10-14T14:33:04.213Z,3.43
2022-10-14T14:36:18.186Z,4.40
2022-10-14T14:39:30.104Z,3.80
2022-10-14T14:42:40.559Z,3.97
2022-10-14T14:45:44.749Z,3.17
2022-10-14T14:48:54.500Z,4.13
2022-10-14T14:51:57.309Z,3.70
2022-10-14T14:54:58.970Z,3.23
2022-10-14T14:58:02.139Z,4.00
2022-10-14T15:01:06.593Z,4.17
2022-10-14T15:04:17.629Z,4.93
2022-10-14T15:07:21.882Z,4.33
2022-10-14T15:10:30.347Z,4.40
2022-10-14T15:13:37.897Z,4.07
2022-10-14T15:16:42.130Z,4.03
2022-10-14T15:19:44.742Z,4.13
2022-10-14T15:22:47.164Z,5.73
2022-10-14T15:25:58.107Z,5.00
2022-10-14T15:29:14.529Z,4.60
2022-10-14T15:32:17.836Z,5.73
2022-10-14T15:35:21.651Z,6.57
2022-10-14T15:38:24.191Z,6.70
2022-10-14T15:41:26.022Z,6.23
2022-10-14T15:44:27.739Z,7.10
2022-10-14T15:47:29.655Z,5.87
2022-10-14T15:50:31.504Z,5.87
2022-10-14T15:53:33.718Z,5.63
2022-10-14T15:56:36.108Z,5.40
2022-10-14T15:59:38.193Z,5.63
2022-10-14T16:02:43.261Z,6.50
2022-10-14T16:05:45.967Z,5.50
2022-10-14T16:08:49.086Z,5.83
2022-10-14T16:11:57.083Z,6.10
2022-10-14T16:14:59.045Z,6.60
2022-10-14T16:18:02.120Z,5.77
2022-10-14T16:21:04.116Z,5.27
2022-10-14T16:24:07.374Z,6.33
2022-10-14T16:27:09.113Z,5.93
2022-10-14T16:30:11.275Z,8.97
2022-10-14T16:33:13.135Z,7.17
2022-10-14T16:36:15.319Z,7.63
2022-10-14T16:39:19.124Z,11.10
2022-10-14T16:42:20.783Z,8.80
2022-10-14T16:45:22.515Z,7.50
2022-10-14T16:48:24.175Z,7.00
2022-10-14T16:51:25.878Z,7.03
2022-10-14T16:54:27.553Z,7.90
2022-10-14T16:57:29.398Z,7.17
2022-10-14T17:00:31.154Z,11.17
2022-10-14T17:03:32.781Z,7.97
2022-10-14T17:06:34.444Z,7.07
2022-10-14T17:09:36.880Z,6.73
2022-10-14T17:12:39.349Z,6.63
2022-10-14T17:15:40.992Z,6.43
2022-10-14T17:18:43.014Z,6.50
2022-10-14T17:21:49.511Z,7.27
2022-10-14T17:24:51.274Z,6.87
2022-10-14T17:27:53.015Z,7.67
2022-10-14T17:30:54.659Z,8.10
2022-10-14T17:33:56.474Z,8.60
2022-10-14T17:36:59.614Z,9.37
2022-10-14T17:40:01.954Z,8.43
2022-10-14T17:43:03.604Z,9.87
2022-10-14T17:49:15.021Z,9.83
2022-10-14T17:52:16.992Z,11.13
2022-10-14T17:58:25.202Z,8.83
2022-10-14T18:01:37.239Z,10.03
2022-10-14T18:04:50.174Z,9.00
2022-10-14T18:07:52.091Z,9.47
2022-10-14T18:10:53.734Z,9.80
2022-10-14T18:13:59.154Z,14.50
2022-10-14T18:17:00.812Z,14.30
2022-10-14T18:20:05.300Z,12.07
2022-10-14T18:23:07.472Z,10.83
2022-10-14T18:26:13.482Z,10.80
2022-10-14T18:29:15.427Z,10.30
2022-10-14T18:32:17.851Z,12.60
2022-10-14T18:35:19.503Z,11.87
2022-10-14T18:38:21.131Z,12.00
2022-10-14T18:41:23.304Z,12.63
2022-10-14T18:44:25.000Z,12.83
2022-10-14T18:47:28.266Z,15.37
2022-10-14T18:50:29.901Z,13.37
2022-10-14T18:53:33.008Z,12.70
2022-10-14T18:56:38.602Z,13.23
2022-10-14T18:59:40.293Z,12.57
2022-10-14T19:02:41.948Z,13.07
2022-10-14T19:05:44.109Z,11.07
2022-10-14T19:08:46.207Z,13.27
2022-10-14T19:11:51.977Z,14.80
2022-10-14T19:14:53.974Z,12.80
2022-10-14T19:17:56.593Z,12.67
2022-10-14T19:21:05.276Z,14.07
2022-10-14T19:24:10.629Z,13.53
2022-10-14T19:27:12.355Z,12.90
2022-10-14T19:30:14.149Z,11.30
2022-10-14T19:33:15.860Z,12.63
2022-10-14T19:36:18.673Z,11.63
2022-10-14T19:39:20.344Z,11.93
2022-10-14T19:42:22.049Z,12.20
2022-10-14T19:45:23.719Z,12.17
2022-10-14T19:48:26.242Z,11.83
2022-10-14T19:51:28.159Z,11.53
2022-10-14T19:54:29.858Z,13.60
2022-10-14T19:57:31.587Z,13.50
2022-10-14T20:00:34.885Z,13.63
2022-10-14T20:03:36.691Z,12.53
2022-10-14T20:06:39.921Z,11.50
2022-10-14T20:09:41.587Z,12.23
2022-10-14T20:12:43.264Z,14.67
2022-10-14T20:15:44.967Z,11.93
2022-10-14T20:18:46.641Z,12.50
2022-10-14T20:21:48.299Z,11.67
2022-10-14T20:24:50.188Z,11.77
2022-10-14T20:27:51.872Z,11.70
2022-10-14T20:30:54.181Z,14.07
2022-10-14T20:33:56.924Z,13.00
2022-10-14T20:36:58.645Z,13.00
2022-10-14T20:40:00.391Z,11.70
2022-10-14T20:43:03.256Z,11.77
2022-10-14T20:46:05.025Z,11.37
2022-10-14T20:49:06.810Z,11.43
2022-10-14T20:52:09.819Z,11.50
2022-10-14T20:55:11.683Z,9.97
2022-10-14T20:58:13.352Z,11.90
2022-10-14T21:01:17.144Z,11.27
2022-10-14T21:04:18.855Z,11.17
2022-10-14T21:07:21.597Z,11.50
2022-10-14T21:10:24.324Z,10.30
2022-10-14T21:13:26.306Z,11.20
2022-10-14T21:16:33.245Z,11.00
2022-10-14T21:19:35.008Z,10.67
2022-10-14T21:22:36.765Z,10.27
2022-10-14T21:25:38.469Z,11.60
2022-10-14T21:28:40.372Z,11.90
2022-10-14T21:31:42.069Z,13.40
2022-10-14T21:34:43.852Z,12.87
2022-10-14T21:37:45.689Z,12.13
2022-10-14T21:40:47.384Z,10.47
2022-10-14T21:43:49.059Z,10.30
2022-10-14T21:46:50.746Z,11.57
2022-10-14T21:49:52.392Z,10.53
2022-10-14T21:52:54.037Z,10.77
2022-10-14T21:55:55.671Z,11.00
2022-10-14T21:58:58.728Z,10.93
2022-10-14T22:02:00.372Z,11.10
2022-10-14T22:05:02.143Z,11.17
2022-10-14T22:08:04.284Z,10.20
2022-10-14T22:11:07.652Z,10.77
2022-10-14T22:14:14.839Z,11.00
2022-10-14T22:17:16.573Z,10.47
2022-10-14T22:20:18.743Z,10.73
2022-10-14T22:23:20.532Z,10.90
2022-10-14T22:26:24.585Z,10.83
2022-10-14T22:29:26.261Z,10.23
2022-10-14T22:32:28.037Z,11.13
2022-10-14T22:35:29.760Z,10.70
2022-10-14T22:38:31.487Z,10.23
2022-10-14T22:41:35.661Z,10.10
2022-10-14T22:44:37.729Z,11.30
2022-10-14T22:47:39.366Z,10.07
2022-10-14T22:50:41.052Z,9.77
2022-10-14T22:53:44.173Z,10.87
2022-10-14T22:56:45.890Z,10.50
2022-10-14T22:59:47.714Z,9.93
2022-10-14T23:02:49.520Z,10.37
2022-10-14T23:05:51.179Z,9.77
2022-10-14T23:08:54.288Z,11.03
2022-10-14T23:11:56.006Z,10.97
2022-10-14T23:14:57.671Z,11.37
2022-10-14T23:17:59.471Z,10.83
2022-10-14T23:21:09.329Z,11.20
2022-10-14T23:24:12.339Z,11.20
2022-10-14T23:27:13.961Z,10.13
2022-10-14T23:30:15.675Z,9.97
2022-10-14T23:33:17.586Z,10.80
2022-10-14T23:36:21.347Z,10.43
2022-10-14T23:39:23.075Z,9.03
2022-10-14T23:42:24.760Z,10.70
2022-10-14T23:45:26.516Z,9.83
2022-10-14T23:48:28.497Z,10.93
2022-10-14T23:51:31.010Z,13.67
2022-10-14T23:54:32.712Z,13.07
2022-10-14T23:57:34.409Z,10.87
